Time;durP1;ratioP1;P1;durP2;ratioP2;P2;SDS_P1;SDS_P2;PMS_P1;PMS_P2;Temp;Humidity;BMP_temperature;BMP_pressure;BME280_temperature;BME280_humidity;BME280_pressure;Samples;Min_cycle;Max_cycle;Signal;HPM_P1;HPM_P2
2022/12/14 00:00:06;;;;;;;;;;;;;;;;;;10497816;28;19925;-61
2022/12/14 00:05:09;;;;;;;;;;;;;;;;;;10497103;28;19925;-61
2022/12/14 00:10:11;;;;;;;;;;;;;;;;;;10492718;28;19986;-61
2022/12/14 00:15:13;;;;;;;;;;;;;;;;;;10492965;28;19929;-61
2022/12/14 00:20:15;;;;;;;;;;;;;;;;;;10457002;28;19932;-61
2022/12/14 00:25:17;;;;;;;;;;;;;;;;;;10459105;28;20336;-61
2022/12/14 00:30:19;;;;;;;;;;;;;;;;;;10498201;28;19924;-61
2022/12/14 00:35:21;;;;;;;;;;;;;;;;;;10494187;28;19986;-61
2022/12/14 00:40:23;;;;;;;;;;;;;;;;;;10480278;28;19928;-62
2022/12/14 00:45:25;;;;;;;;;;;;;;;;;;10496473;28;19924;-61
2022/12/14 00:50:27;;;;;;;;;;;;;;;;;;10498237;28;20073;-61
2022/12/14 00:55:29;;;;;;;;;;;;;;;;;;10461204;28;19986;-61
2022/12/14 01:00:31;;;;;;;;;;;;;;;;;;10502076;28;19925;-61
2022/12/14 01:05:33;;;;;;;;;;;;;;;;;;10502484;28;19924;-61
2022/12/14 01:10:35;;;;;;;;;;;;;;;;;;10504798;28;19924;-61
2022/12/14 01:15:37;;;;;;;;;;;;;;;;;;10502621;28;19971;-61
2022/12/14 01:20:39;;;;;;;;;;;;;;;;;;10503323;28;19932;-61
2022/12/14 01:25:41;;;;;;;;;;;;;;;;;;10501410;28;19950;-61
2022/12/14 01:30:43;;;;;;;;;;;;;;;;;;10503684;28;20333;-61
2022/12/14 01:35:45;;;;;;;;;;;;;;;;;;10483858;28;19925;-61
2022/12/14 01:40:48;;;;;;;;;;;;;;;;;;10503107;28;20372;-61
2022/12/14 01:45:50;;;;;;;;;;;;;;;;;;10483305;28;19924;-61
2022/12/14 01:50:52;;;;;;;;;;;;;;;;;;10503295;28;19932;-61
2022/12/14 01:55:54;;;;;;;;;;;;;;;;;;10501021;28;20437;-61
2022/12/14 02:00:56;;;;;;;;;;;;;;;;;;10502953;28;19924;-61
2022/12/14 02:05:58;;;;;;;;;;;;;;;;;;10500119;28;19986;-61
2022/12/14 02:11:00;;;;;;;;;;;;;;;;;;10502198;28;19928;-61
2022/12/14 02:16:02;;;;;;;;;;;;;;;;;;10500426;28;20337;-61
2022/12/14 02:21:04;;;;;;;;;;;;;;;;;;10501549;28;20282;-61
2022/12/14 02:26:06;;;;;;;;;;;;;;;;;;10499275;28;19931;-61
2022/12/14 02:31:08;;;;;;;;;;;;;;;;;;10501773;28;19931;-61
2022/12/14 02:36:10;;;;;;;;;;;;;;;;;;10500121;28;19924;-61
2022/12/14 02:41:12;;;;;;;;;;;;;;;;;;10499557;28;19929;-61
2022/12/14 02:46:15;;;;;;;;;;;;;;;;;;10497955;28;19924;-61
2022/12/14 02:51:17;;;;;;;;;;;;;;;;;;10500242;28;19931;-61
2022/12/14 02:56:19;;;;;;;;;;;;;;;;;;10497865;28;19966;-61
2022/12/14 03:01:21;;;;;;;;;;;;;;;;;;10464322;28;19978;-61
2022/12/14 03:06:26;;;;;;;;;;;;;;;;;;10457902;28;19932;-61
2022/12/14 03:11:28;;;;;;;;;;;;;;;;;;10480885;28;20331;-61
2022/12/14 03:16:30;;;;;;;;;;;;;;;;;;10497519;28;19924;-61
2022/12/14 03:21:33;;;;;;;;;;;;;;;;;;10471213;22;19967;-61
2022/12/14 03:26:36;;;;;;;;;;;;;;;;;;10473248;28;19967;-61
2022/12/14 03:31:41;;;;;;;;;;;;;;;;;;10481512;28;19928;-61
2022/12/14 03:36:43;;;;;;;;;;;;;;;;;;10497934;28;19929;-61
2022/12/14 03:41:45;;;;;;;;;;;;;;;;;;10498143;28;19970;-61
2022/12/14 03:46:49;;;;;;;;;;;;;;;;;;10497374;28;19925;-61
2022/12/14 03:51:51;;;;;;;;;;;;;;;;;;10499011;28;19925;-61
2022/12/14 03:56:53;;;;;;;;;;;;;;;;;;10477861;28;20317;-61
2022/12/14 04:01:55;;;;;;;;;;;;;;;;;;10457435;28;19925;-61
2022/12/14 04:06:57;;;;;;;;;;;;;;;;;;10475103;28;19925;-61
2022/12/14 04:22:41;;;;;;;;;;;;;;;;;;10498446;28;19931;-61
2022/12/14 04:27:43;;;;;;;;;;;;;;;;;;10493154;28;19925;-61
2022/12/14 04:32:45;;;;;;;;;;;;;;;;;;10500726;28;19928;-61
2022/12/14 04:37:47;;;;;;;;;;;;;;;;;;10503691;28;19924;-62
2022/12/14 04:42:49;;;;;;;;;;;;;;;;;;10505410;28;20313;-61
2022/12/14 04:47:51;;;;;;;;;;;;;;;;;;10503903;28;19924;-61
2022/12/14 04:52:53;;;;;;;;;;;;;;;;;;10504008;28;20008;-61
2022/12/14 04:57:55;;;;;;;;;;;;;;;;;;10474016;28;19971;-61
2022/12/14 05:02:57;;;;;;;;;;;;;;;;;;10463244;28;20338;-61
2022/12/14 05:08:00;;;;;;;;;;;;;;;;;;10493211;28;19925;-61
2022/12/14 05:13:02;;;;;;;;;;;;;;;;;;10500840;28;19925;-61
2022/12/14 05:18:04;;;;;;;;;;;;;;;;;;10500986;28;19928;-61
2022/12/14 05:23:06;;;;;;;;;;;;;;;;;;10504591;28;19931;-61
2022/12/14 05:28:08;;;;;;;;;;;;;;;;;;10500238;28;19929;-61
2022/12/14 05:33:10;;;;;;;;;;;;;;;;;;10502469;28;19931;-61
2022/12/14 05:38:12;;;;;;;;;;;;;;;;;;10472052;28;19925;-61
2022/12/14 05:43:14;;;;;;;;;;;;;;;;;;10502194;28;20284;-62
2022/12/14 05:48:16;;;;;;;;;;;;;;;;;;10501597;28;20037;-61
2022/12/14 05:53:18;;;;;;;;;;;;;;;;;;10501549;28;19924;-61
2022/12/14 05:58:20;;;;;;;;;;;;;;;;;;10501737;28;19924;-61
2022/12/14 06:03:22;;;;;;;;;;;;;;;;;;10502275;28;19947;-61
2022/12/14 06:08:24;;;;;;;;;;;;;;;;;;10500436;28;19959;-61
2022/12/14 06:13:27;;;;;;;;;;;;;;;;;;10502611;28;19924;-62
2022/12/14 06:18:29;;;;;;;;;;;;;;;;;;10467926;28;19925;-61
2022/12/14 06:23:31;;;;;;;;;;;;;;;;;;10460822;28;19978;-61
2022/12/14 06:28:33;;;;;;;;;;;;;;;;;;10490277;28;19925;-61
2022/12/14 06:33:35;;;;;;;;;;;;;;;;;;10498450;28;20294;-61
2022/12/14 06:38:37;;;;;;;;;;;;;;;;;;10500021;28;19932;-61
2022/12/14 06:43:39;;;;;;;;;;;;;;;;;;10501285;28;19931;-61
2022/12/14 06:48:42;;;;;;;;;;;;;;;;;;10498522;28;20395;-61
2022/12/14 06:53:44;;;;;;;;;;;;;;;;;;10498982;28;20342;-61
2022/12/14 06:58:46;;;;;;;;;;;;;;;;;;10496871;28;19928;-61
2022/12/14 07:03:48;;;;;;;;;;;;;;;;;;10499897;28;20321;-61
2022/12/14 07:08:50;;;;;;;;;;;;;;;;;;10498620;28;20374;-61
2022/12/14 07:13:52;;;;;;;;;;;;;;;;;;10499220;28;19931;-61
2022/12/14 07:18:55;;;;;;;;;;;;;;;;;;10496974;28;19936;-61
2022/12/14 07:23:57;;;;;;;;;;;;;;;;;;10496268;28;19986;-61
2022/12/14 07:28:59;;;;;;;;;;;;;;;;;;10496176;28;20375;-61
2022/12/14 07:34:01;;;;;;;;;;;;;;;;;;10477145;28;20325;-61
2022/12/14 07:39:03;;;;;;;;;;;;;;;;;;10491846;28;19924;-61
2022/12/14 07:44:05;;;;;;;;;;;;;;;;;;10497637;28;19924;-61
2022/12/14 07:49:08;;;;;;;;;;;;;;;;;;10477029;28;19925;-61
2022/12/14 07:54:10;;;;;;;;;;;;;;;;;;10498477;28;20291;-61
2022/12/14 07:59:13;;;;;;;;;;;;;;;;;;10461155;28;19928;-61
2022/12/14 08:04:15;;;;;;;;;;;;;;;;;;10498821;28;19924;-61
2022/12/14 08:09:18;;;;;;;;;;;;;;;;;;10462717;28;19932;-61
2022/12/14 08:14:21;;;;;;;;;;;;;;;;;;10465736;28;19986;-61
2022/12/14 08:19:23;;;;;;;;;;;;;;;;;;10470000;28;19924;-61
2022/12/14 08:24:25;;;;;;;;;;;;;;;;;;10506765;28;20375;-61
2022/12/14 08:29:27;;;;;;;;;;;;;;;;;;10487141;28;19925;-61
2022/12/14 08:34:29;;;;;;;;;;;;;;;;;;10502650;28;19982;-61
2022/12/14 08:39:31;;;;;;;;;;;;;;;;;;10474070;28;20464;-61
2022/12/14 08:44:33;;;;;;;;;;;;;;;;;;10464776;28;19955;-61
2022/12/14 08:49:36;;;;;;;;;;;;;;;;;;10459664;28;19928;-61
2022/12/14 08:54:38;;;;;;;;;;;;;;;;;;10477593;28;19924;-61
2022/12/14 08:59:40;;;;;;;;;;;;;;;;;;10473992;28;19925;-61
2022/12/14 09:05:02;;;;;;;;;;;;;;;;;;10441450;28;19987;-61
2022/12/14 09:10:04;;;;;;;;;;;;;;;;;;10441566;28;19973;-61
2022/12/14 09:15:06;;;;;;;;;;;;;;;;;;10463503;28;19925;-61
2022/12/14 09:20:09;;;;;;;;;;;;;;;;;;10443815;28;19925;-61
2022/12/14 09:25:11;;;;;;;;;;;;;;;;;;10462350;28;20336;-61
2022/12/14 09:30:13;;;;;;;;;;;;;;;;;;10469857;28;19924;-62
2022/12/14 09:35:15;;;;;;;;;;;;;;;;;;10494288;28;19970;-62
2022/12/14 09:40:18;;;;;;;;;;;;;;;;;;10433772;28;19971;-62
2022/12/14 09:45:20;;;;;;;;;;;;;;;;;;10444386;28;20376;-61
2022/12/14 09:50:22;;;;;;;;;;;;;;;;;;10427439;28;19928;-61
2022/12/14 09:55:25;;;;;;;;;;;;;;;;;;10445561;28;19929;-61
2022/12/14 10:00:27;;;;;;;;;;;;;;;;;;10451011;28;19931;-61
2022/12/14 10:05:29;;;;;;;;;;;;;;;;;;10460284;28;19971;-61
2022/12/14 10:10:31;;;;;;;;;;;;;;;;;;10459700;28;19933;-61
2022/12/14 10:15:33;;;;;;;;;;;;;;;;;;10457193;28;19964;-61
2022/12/14 10:20:35;;;;;;;;;;;;;;;;;;10459837;28;19929;-61
2022/12/14 10:25:38;;;;;;;;;;;;;;;;;;10458790;28;19924;-61
2022/12/14 10:30:41;;;;;;;;;;;;;;;;;;10460004;28;19978;-61
2022/12/14 10:35:43;;;;;;;;;;;;;;;;;;10461398;28;19939;-61
2022/12/14 10:40:45;;;;;;;;;;;;;;;;;;10458168;28;20047;-61
2022/12/14 10:45:47;;;;;;;;;;;;;;;;;;10440280;28;19928;-62
2022/12/14 10:50:49;;;;;;;;;;;;;;;;;;10454819;28;20058;-61
2022/12/14 10:55:51;;;;;;;;;;;;;;;;;;10480429;28;20318;-62
2022/12/14 11:00:54;;;;;;;;;;;;;;;;;;10484572;28;20024;-62
2022/12/14 11:05:56;;;;;;;;;;;;;;;;;;10498304;28;20011;-62
2022/12/14 11:10:58;;;;;;;;;;;;;;;;;;10492109;28;19924;-62
2022/12/14 11:16:00;;;;;;;;;;;;;;;;;;10497002;28;19925;-62
2022/12/14 11:21:02;;;;;;;;;;;;;;;;;;10492521;28;20326;-62
2022/12/14 11:26:04;;;;;;;;;;;;;;;;;;10463566;28;20364;-62
2022/12/14 11:31:06;;;;;;;;;;;;;;;;;;10466895;28;19928;-62
2022/12/14 11:36:08;;;;;;;;;;;;;;;;;;10463608;28;19931;-62
2022/12/14 11:41:11;;;;;;;;;;;;;;;;;;10492918;28;19925;-61
2022/12/14 11:46:13;;;;;;;;;;;;;;;;;;10471909;28;19929;-62
2022/12/14 11:51:15;;;;;;;;;;;;;;;;;;10457775;28;19971;-62
2022/12/14 11:56:17;;;;;;;;;;;;;;;;;;10457569;28;19925;-62
2022/12/14 12:01:19;;;;;;;;;;;;;;;;;;10456908;28;19948;-62
2022/12/14 12:06:22;;;;;;;;;;;;;;;;;;10492885;28;19925;-62
2022/12/14 12:11:24;;;;;;;;;;;;;;;;;;10471644;28;20323;-62
2022/12/14 12:16:26;;;;;;;;;;;;;;;;;;10457198;28;19925;-61
2022/12/14 12:21:28;;;;;;;;;;;;;;;;;;10480167;28;19964;-61
2022/12/14 12:26:30;;;;;;;;;;;;;;;;;;10498333;28;19970;-61
2022/12/14 12:31:32;;;;;;;;;;;;;;;;;;10471500;28;19925;-62
2022/12/14 12:36:34;;;;;;;;;;;;;;;;;;10456712;28;19925;-61
2022/12/14 12:41:36;;;;;;;;;;;;;;;;;;10454450;28;19924;-62
2022/12/14 12:46:44;;;;;;;;;;;;;;;;;;10456058;28;19929;-61
2022/12/14 12:52:06;;;;;;;;;;;;;;;;;;10480751;28;19975;-61
2022/12/14 12:57:08;;;;;;;;;;;;;;;;;;10505538;28;19928;-62
2022/12/14 13:02:10;;;;;;;;;;;;;;;;;;10503237;28;20368;-61
2022/12/14 13:07:12;;;;;;;;;;;;;;;;;;10505245;28;19929;-61
2022/12/14 13:12:14;;;;;;;;;;;;;;;;;;10486689;28;19928;-62
2022/12/14 13:17:16;;;;;;;;;;;;;;;;;;10503644;28;19929;-61
2022/12/14 13:22:18;;;;;;;;;;;;;;;;;;10483657;28;20284;-61
2022/12/14 13:27:20;;;;;;;;;;;;;;;;;;10504403;28;19940;-61
2022/12/14 13:32:22;;;;;;;;;;;;;;;;;;10500947;28;19925;-61
2022/12/14 13:37:25;;;;;;;;;;;;;;;;;;10501144;28;20219;-61
2022/12/14 13:42:27;;;;;;;;;;;;;;;;;;10479100;28;20383;-61
2022/12/14 13:47:29;;;;;;;;;;;;;;;;;;10462259;28;19932;-61
2022/12/14 13:52:31;;;;;;;;;;;;;;;;;;10458738;28;19929;-61
2022/12/14 13:57:33;;;;;;;;;;;;;;;;;;10461837;28;19928;-61
2022/12/14 14:02:35;;;;;;;;;;;;;;;;;;10468091;28;19932;-61
2022/12/14 14:07:38;;;;;;;;;;;;;;;;;;10502242;28;20318;-61
2022/12/14 14:12:40;;;;;;;;;;;;;;;;;;10502057;28;20329;-61
2022/12/14 14:17:42;;;;;;;;;;;;;;;;;;10489066;28;19940;-61
2022/12/14 14:22:44;;;;;;;;;;;;;;;;;;10396633;28;19925;-61
2022/12/14 14:27:47;;;;;;;;;;;;;;;;;;10419502;28;19925;-62
2022/12/14 14:32:52;;;;;;;;;;;;;;;;;;10378241;28;19931;-61
2022/12/14 14:37:55;;;;;;;;;;;;;;;;;;10377612;28;19926;-61
2022/12/14 14:42:58;;;;;;;;;;;;;;;;;;10408966;28;19929;-61
2022/12/14 14:48:01;;;;;;;;;;;;;;;;;;10418733;28;19932;-61
2022/12/14 14:53:03;;;;;;;;;;;;;;;;;;10417256;28;19971;-61
2022/12/14 14:58:05;;;;;;;;;;;;;;;;;;10418206;28;19929;-61
2022/12/14 15:03:07;;;;;;;;;;;;;;;;;;10418190;28;19932;-61
2022/12/14 15:08:09;;;;;;;;;;;;;;;;;;10417323;28;19932;-61
2022/12/14 15:13:11;;;;;;;;;;;;;;;;;;10417630;28;19926;-61
2022/12/14 15:18:13;;;;;;;;;;;;;;;;;;10424672;28;19928;-61
2022/12/14 15:23:15;;;;;;;;;;;;;;;;;;10499339;28;20453;-61
2022/12/14 15:28:18;;;;;;;;;;;;;;;;;;10499659;28;19932;-61
2022/12/14 15:33:20;;;;;;;;;;;;;;;;;;10497671;22;19991;-61
2022/12/14 15:38:23;;;;;;;;;;;;;;;;;;10458204;28;19932;-61
2022/12/14 15:43:25;;;;;;;;;;;;;;;;;;10458003;28;19932;-61
2022/12/14 15:48:28;;;;;;;;;;;;;;;;;;10457231;28;20379;-61
2022/12/14 15:53:31;;;;;;;;;;;;;;;;;;10457560;28;20363;-61
2022/12/14 15:58:33;;;;;;;;;;;;;;;;;;10457562;28;19924;-61
2022/12/14 16:03:35;;;;;;;;;;;;;;;;;;10457995;28;19939;-61
2022/12/14 16:08:38;;;;;;;;;;;;;;;;;;10456724;28;19932;-61
2022/12/14 16:13:40;;;;;;;;;;;;;;;;;;10457254;28;19925;-61
2022/12/14 16:18:42;;;;;;;;;;;;;;;;;;10456593;28;19925;-61
2022/12/14 16:23:45;;;;;;;;;;;;;;;;;;10456590;28;19932;-61
2022/12/14 16:28:47;;;;;;;;;;;;;;;;;;10459742;28;19935;-61
2022/12/14 16:33:49;;;;;;;;;;;;;;;;;;10464839;28;19975;-61
2022/12/14 16:38:51;;;;;;;;;;;;;;;;;;10464451;28;19987;-61
2022/12/14 16:43:54;;;;;;;;;;;;;;;;;;10464942;28;19932;-61
2022/12/14 16:48:56;;;;;;;;;;;;;;;;;;10464254;28;20413;-61
2022/12/14 16:53:58;;;;;;;;;;;;;;;;;;10464366;28;19925;-61
2022/12/14 16:59:00;;;;;;;;;;;;;;;;;;10463747;28;19924;-61
2022/12/14 17:04:02;;;;;;;;;;;;;;;;;;10463994;28;19925;-61
2022/12/14 17:09:05;;;;;;;;;;;;;;;;;;10463926;28;19925;-61
2022/12/14 17:14:07;;;;;;;;;;;;;;;;;;10463638;28;19979;-61
2022/12/14 17:19:09;;;;;;;;;;;;;;;;;;10462878;28;20279;-61
2022/12/14 17:24:11;;;;;;;;;;;;;;;;;;10445638;28;19979;-61
2022/12/14 17:29:13;;;;;;;;;;;;;;;;;;10462579;28;19986;-61
2022/12/14 17:34:15;;;;;;;;;;;;;;;;;;10462516;28;19925;-61
2022/12/14 17:39:19;;;;;;;;;;;;;;;;;;10461864;28;19925;-61
2022/12/14 17:44:21;;;;;;;;;;;;;;;;;;10462573;28;19929;-61
2022/12/14 17:49:35;;;;;;;;;;;;;;;;;;10462408;28;19925;-61
2022/12/14 17:54:37;;;;;;;;;;;;;;;;;;10461483;28;20298;-61
2022/12/14 17:59:39;;;;;;;;;;;;;;;;;;10461268;28;19925;-61
2022/12/14 18:04:47;;;;;;;;;;;;;;;;;;10461751;28;19932;-61
2022/12/14 18:09:51;;;;;;;;;;;;;;;;;;10460922;28;20291;-61
2022/12/14 18:14:54;;;;;;;;;;;;;;;;;;10460645;28;19951;-61
2022/12/14 18:19:56;;;;;;;;;;;;;;;;;;10461127;28;19932;-61
2022/12/14 18:24:58;;;;;;;;;;;;;;;;;;10460336;28;20283;-61
2022/12/14 18:30:00;;;;;;;;;;;;;;;;;;10460754;28;19932;-61
2022/12/14 18:35:02;;;;;;;;;;;;;;;;;;10460287;28;20257;-61
2022/12/14 18:40:04;;;;;;;;;;;;;;;;;;10460350;28;19929;-61
2022/12/14 18:45:06;;;;;;;;;;;;;;;;;;10460231;28;19925;-61
2022/12/14 18:50:08;;;;;;;;;;;;;;;;;;10459250;28;20291;-61
2022/12/14 18:55:10;;;;;;;;;;;;;;;;;;10459066;28;20371;-61
2022/12/14 19:00:13;;;;;;;;;;;;;;;;;;10459481;28;19924;-61
2022/12/14 19:05:15;;;;;;;;;;;;;;;;;;10458728;28;19955;-61
2022/12/14 19:10:18;;;;;;;;;;;;;;;;;;10458460;28;19929;-61
2022/12/14 19:15:20;;;;;;;;;;;;;;;;;;10458278;28;19979;-61
2022/12/14 19:20:22;;;;;;;;;;;;;;;;;;10459014;28;19975;-61
2022/12/14 19:25:24;;;;;;;;;;;;;;;;;;10459201;28;19925;-61
2022/12/14 19:30:27;;;;;;;;;;;;;;;;;;10457912;28;19925;-61
2022/12/14 19:35:30;;;;;;;;;;;;;;;;;;10457718;28;19931;-61
2022/12/14 19:40:32;;;;;;;;;;;;;;;;;;10457511;28;20329;-61
2022/12/14 19:45:35;;;;;;;;;;;;;;;;;;10458026;28;19932;-61
2022/12/14 19:50:37;;;;;;;;;;;;;;;;;;10457916;28;19969;-61
2022/12/14 19:55:39;;;;;;;;;;;;;;;;;;10456994;28;20386;-61
2022/12/14 20:00:41;;;;;;;;;;;;;;;;;;10457676;28;19924;-61
2022/12/14 20:05:43;;;;;;;;;;;;;;;;;;10455091;28;19931;-61
2022/12/14 20:10:45;;;;;;;;;;;;;;;;;;10456598;28;19924;-61
2022/12/14 20:15:47;;;;;;;;;;;;;;;;;;10456736;28;19983;-61
2022/12/14 20:20:50;;;;;;;;;;;;;;;;;;10456507;28;20360;-61
2022/12/14 20:25:52;;;;;;;;;;;;;;;;;;10456997;28;19940;-61
2022/12/14 20:30:54;;;;;;;;;;;;;;;;;;10457076;28;19932;-61
2022/12/14 20:35:56;;;;;;;;;;;;;;;;;;10456581;28;19970;-61
2022/12/14 20:40:59;;;;;;;;;;;;;;;;;;10455083;28;19929;-61
2022/12/14 20:46:01;;;;;;;;;;;;;;;;;;10471949;28;19947;-61
2022/12/14 20:51:03;;;;;;;;;;;;;;;;;;10497980;28;19924;-61
2022/12/14 20:56:07;;;;;;;;;;;;;;;;;;10497157;28;20418;-61
2022/12/14 21:01:12;;;;;;;;;;;;;;;;;;10495869;28;19994;-61
2022/12/14 21:06:14;;;;;;;;;;;;;;;;;;10485045;28;19932;-61
2022/12/14 21:16:36;;;;;;;;;;;;;;;;;;10460269;28;19974;-61
2022/12/14 21:21:39;;;;;;;;;;;;;;;;;;10462683;28;19925;-61
2022/12/14 21:26:41;;;;;;;;;;;;;;;;;;10470008;28;19924;-61
2022/12/14 21:31:43;;;;;;;;;;;;;;;;;;10503845;28;20291;-61
2022/12/14 21:36:45;;;;;;;;;;;;;;;;;;10503938;28;19931;-61
2022/12/14 21:47:08;;;;;;;;;;;;;;;;;;10485036;28;19929;-61
2022/12/14 21:52:10;;;;;;;;;;;;;;;;;;10461701;28;19955;-61
2022/12/14 22:02:33;;;;;;;;;;;;;;;;;;10459739;28;20271;-61
2022/12/14 22:07:35;;;;;;;;;;;;;;;;;;10500075;28;19931;-61
2022/12/14 22:12:37;;;;;;;;;;;;;;;;;;10502923;28;19925;-61
2022/12/14 22:17:39;;;;;;;;;;;;;;;;;;10502637;28;19932;-61
2022/12/14 22:22:41;;;;;;;;;;;;;;;;;;10500713;28;20394;-61
2022/12/14 22:27:43;;;;;;;;;;;;;;;;;;10499519;28;19924;-61
2022/12/14 22:32:51;;;;;;;;;;;;;;;;;;10501149;28;19924;-62
2022/12/14 22:37:53;;;;;;;;;;;;;;;;;;10499809;28;19928;-61
2022/12/14 22:42:55;;;;;;;;;;;;;;;;;;10501624;28;19924;-61
2022/12/14 22:47:59;;;;;;;;;;;;;;;;;;10496831;28;21549;-61
2022/12/14 22:53:01;;;;;;;;;;;;;;;;;;10459797;28;19932;-61
2022/12/14 22:58:03;;;;;;;;;;;;;;;;;;10485505;28;19928;-61
2022/12/14 23:03:05;;;;;;;;;;;;;;;;;;10500227;28;19924;-61
2022/12/14 23:08:07;;;;;;;;;;;;;;;;;;10499948;28;20047;-61
